Have a Safe July 4th! 

Flight Track Log - Related Links

Times and Time Zones

All times are in EDT time to prevent confusion due to time zone crossing. See the EJA930 flight status page for this flight to view local times or setup timezone preferences in your user account.

Time Position Orientation Groundspeed Altitude Reporting Facility
EDT Latitude Longitude Course Direction KTS MPH feet Rate Location/Type
Fri 08:44:26 PM 42.3500 -71.0167 144° Southeast 180 207 800  Level KA90
Fri 08:44:56 PM 42.3333 -71.0000 144° Southeast 197 227 2,000 2,901 Climbing KA90
Fri 08:45:57 PM 42.3167 -70.9167 105° East 255 293 5,200 3,227 Climbing KA90
Fri 08:46:55 PM 42.3328 -70.8336 75° East 292 336 8,400 3,407 Climbing Boston Center
Fri 08:47:55 PM 42.3794 -70.7453 54° Northeast 299 344 11,900 2,250 Climbing Boston Center
Fri 08:48:55 PM 42.4689 -70.7289 North 281 323 12,900 1,136 Climbing Boston Center
Fri 08:50:07 PM 42.5533 -70.7997 328° Northwest 281 323 14,400 1,500 Climbing Boston Center
Fri 08:51:07 PM 42.6197 -70.9419 302° West 310 357 16,200 1,600 Climbing Boston Center
Fri 08:52:07 PM 42.6756 -71.0564 304° West 363 418 17,600 1,200 Climbing Boston Center
Fri 08:53:07 PM 42.7311 -71.1739 303° West 372 428 18,600 1,053 Climbing Boston Center
Fri 08:54:18 PM 42.7800 -71.2831 301° West 372 428 19,900 1,318 Climbing Boston Center
Fri 08:55:19 PM 42.8025 -71.4497 280° West 372 428 21,500 1,587 Climbing Boston Center
Fri 08:56:19 PM 42.8142 -71.6050 276° West 372 428 23,100 1,300 Climbing Boston Center
Fri 08:57:19 PM 42.8275 -71.7494 277° West 384 442 24,100 1,000 Climbing Boston Center
Fri 08:58:19 PM 42.8408 -71.8964 277° West 389 448 25,100 950 Climbing Boston Center
Fri 08:59:19 PM 42.8561 -72.0464 278° West 389 448 26,000 850 Climbing Boston Center
Fri 09:00:19 PM 42.8692 -72.1964 277° West 394 453 26,800 750 Climbing Boston Center
Fri 09:01:19 PM 42.8858 -72.3353 279° West 404 465 27,500 682 Climbing Boston Center
Fri 09:02:31 PM 42.9006 -72.4911 277° West 415 478 28,300 955 Climbing Boston Center
Fri 09:03:31 PM 42.9128 -72.7008 275° West 420 483 29,600 1,100 Climbing Boston Center
Fri 09:04:31 PM 42.9269 -72.8625 277° West 425 489 30,500 950 Climbing Boston Center
Fri 09:05:31 PM 42.9431 -73.0103 279° West 430 495 31,500 1,150 Climbing Boston Center
Fri 09:06:31 PM 42.9461 -73.1747 272° West 435 501 32,800 1,400 Climbing Boston Center
Fri 09:07:31 PM 42.9386 -73.3392 266° West 435 501 34,300 1,700 Climbing Boston Center
Fri 09:08:31 PM 42.9167 -73.4947 259° West 435 501 36,200 1,400 Climbing Boston Center
Fri 09:09:31 PM 42.8983 -73.6531 261° West 430 495 37,100 1,100 Climbing Boston Center
Fri 09:10:31 PM 42.8819 -73.8142 262° West 430 495 38,400 1,300 Climbing Boston Center
Fri 09:11:31 PM 42.8631 -73.9783 261° West 435 501 39,700 1,150 Climbing Boston Center
Fri 09:12:31 PM 42.8483 -74.1392 263° West 435 501 40,700 1,000 Climbing Boston Center
Fri 09:13:31 PM 42.8292 -74.2972 261° West 435 501 41,700 900 Climbing Boston Center
Fri 09:14:31 PM 42.8119 -74.4525 261° West 430 495 42,500 650 Climbing Boston Center
Fri 09:15:31 PM 42.7922 -74.6244 261° West 425 489 43,000 250 Climbing Boston Center
Fri 09:16:31 PM 42.7742 -74.7878 261° West 425 489 43,000  Level Boston Center
Fri 09:17:31 PM 42.7542 -74.9456 260° West 425 489 43,000  Level Boston Center
Fri 09:18:31 PM 42.7383 -75.0975 262° West 425 489 43,000  Level Boston Center
Fri 09:19:31 PM 42.7200 -75.2550 261° West 420 483 43,000  Level Boston Center
Fri 09:20:31 PM 42.6992 -75.4122 260° West 425 489 43,000  Level Boston Center
Fri 09:21:31 PM 42.6803 -75.5697 261° West 425 489 43,000  Level Boston Center
Fri 09:22:31 PM 42.6633 -75.7325 262° West 430 495 43,000  Level Boston Center
Fri 09:23:31 PM 42.6417 -75.8953 260° West 435 501 43,000  Level Boston Center
Fri 09:25:34 PM 42.6044 -76.2047 261° West 439 505 43,000  Level Cleveland Center
Fri 09:26:34 PM 42.5808 -76.3586 258° West 429 494 43,000  Level Cleveland Center
Fri 09:27:34 PM 42.5614 -76.5150 260° West 429 494 43,000  Level Cleveland Center
Fri 09:28:34 PM 42.5419 -76.6714 260° West 429 494 43,000  Level Cleveland Center
Fri 09:29:34 PM 42.5203 -76.8333 260° West 434 499 43,000  Level Cleveland Center
Fri 09:30:34 PM 42.5000 -76.9894 260° West 429 494 43,000  Level Cleveland Center
Fri 09:31:34 PM 42.4781 -77.1542 260° West 434 499 43,000  Level Cleveland Center
Fri 09:32:34 PM 42.4533 -77.3131 258° West 434 499 43,000  Level Cleveland Center
Fri 09:33:34 PM 42.4272 -77.4944 259° West 434 499 43,000  Level Cleveland Center
Fri 09:34:34 PM 42.4272 -77.6603 270° West 445 512 43,000  Level Cleveland Center
Fri 09:35:34 PM 42.4294 -77.8292 271° West 445 512 43,000  Level Cleveland Center
Fri 09:36:34 PM 42.4353 -77.9919 273° West 445 512 43,000  Level Cleveland Center
Fri 09:37:34 PM 42.4369 -78.1608 271° West 440 506 43,000  Level Cleveland Center
Fri 09:38:34 PM 42.4422 -78.3267 273° West 440 506 43,000  Level Cleveland Center
Fri 09:39:34 PM 42.4433 -78.4956 271° West 440 506 43,000  Level Cleveland Center
Fri 09:40:34 PM 42.4464 -78.6614 271° West 440 506 43,000  Level Cleveland Center
Fri 09:41:34 PM 42.4489 -78.8300 271° West 445 512 43,000  Level Cleveland Center
Fri 09:42:34 PM 42.4472 -78.9989 269° West 450 518 43,000  Level Cleveland Center
Fri 09:43:34 PM 42.4494 -79.1706 271° West 450 518 43,000  Level Cleveland Center
Fri 09:44:34 PM 42.4492 -79.3225 270° West 457 526 43,000  Level Cleveland Center
Fri 09:45:34 PM 42.4508 -79.4914 271° West 457 526 43,000  Level Cleveland Center
Fri 09:46:34 PM 42.4522 -79.6575 271° West 457 526 43,000  Level Cleveland Center
Fri 09:47:34 PM 42.4514 -79.8233 270° West 457 526 43,000  Level Cleveland Center
Fri 09:48:34 PM 42.4506 -80.0092 270° West 457 526 43,000  Level Cleveland Center
Fri 09:49:34 PM 42.4533 -80.1781 271° West 457 526 43,000  Level Cleveland Center
Fri 09:50:34 PM 42.4494 -80.3439 268° West 452 520 43,000  Level Cleveland Center
Fri 09:51:34 PM 42.4497 -80.5128 270° West 452 520 43,000  Level Cleveland Center
Fri 09:52:34 PM 42.4478 -80.6817 269° West 457 526 43,000  Level Cleveland Center
Fri 09:53:34 PM 42.4475 -80.8447 270° West 450 518 43,000  Level Cleveland Center
Fri 09:54:34 PM 42.4469 -81.0136 270° West 450 518 43,000  Level Cleveland Center
Fri 09:55:34 PM 42.4442 -81.1825 269° West 450 518 43,000  Level Cleveland Center
Fri 09:56:34 PM 42.4408 -81.3483 268° West 450 518 43,000  Level Cleveland Center
Fri 09:57:34 PM 42.4419 -81.5117 271° West 450 518 43,000  Level Cleveland Center
Fri 09:58:34 PM 42.4383 -81.6861 268° West 450 518 43,000  Level Cleveland Center
Fri 09:59:34 PM 42.4347 -81.8322 268° West 450 518 43,000  Level Cleveland Center
Fri 10:00:34 PM 42.4328 -82.0011 269° West 449 517 43,000  Level Cleveland Center
Fri 10:01:34 PM 42.4283 -82.1669 268° West 449 517 43,000  Level Cleveland Center
Fri 10:02:34 PM 42.4261 -82.3328 269° West 444 511 43,000  Level Cleveland Center
Fri 10:03:34 PM 42.4214 -82.4986 268° West 444 511 43,000  Level Cleveland Center
Fri 10:04:34 PM 42.4164 -82.6672 268° West 444 511 43,000  Level Cleveland Center
Fri 10:05:34 PM 42.4131 -82.8358 269° West 444 511 43,000  Level Cleveland Center
Fri 10:06:34 PM 42.4097 -83.0017 268° West 444 511 43,000  Level Cleveland Center
Fri 10:07:34 PM 42.4061 -83.1675 268° West 438 504 43,000  Level Cleveland Center
Fri 10:08:34 PM 42.3975 -83.3583 267° West 457 526 43,000  Level Cleveland Center
Fri 10:09:34 PM 42.3936 -83.5211 268° West 457 526 43,000  Level Cleveland Center
Fri 10:10:34 PM 42.3931 -83.6956 270° West 457 526 43,000  Level Cleveland Center
Fri 10:11:34 PM 42.3844 -83.8556 266° West 451 519 43,000  Level Cleveland Center
Fri 10:12:34 PM 42.3775 -84.0208 267° West 445 512 43,000  Level Cleveland Center
Fri 10:13:34 PM 42.3703 -84.1892 267° West 445 512 43,000  Level Cleveland Center
Fri 10:15:16 PM 42.3603 -84.4683 267° West 446 513 43,000  Level Chicago Center
Fri 10:16:17 PM 42.3536 -84.6347 267° West 445 512 43,000  Level Chicago Center
Fri 10:17:19 PM 42.3475 -84.8028 267° West 447 514 43,000  Level Chicago Center
Fri 10:18:21 PM 42.3411 -84.9683 267° West 444 511 43,000  Level Chicago Center
Fri 10:19:22 PM 42.3339 -85.1358 267° West 445 512 43,000  Level Chicago Center
Fri 10:20:24 PM 42.3256 -85.3033 266° West 447 514 43,000  Level Chicago Center
Fri 10:21:25 PM 42.3183 -85.4719 267° West 448 516 43,000  Level Chicago Center
Fri 10:22:27 PM 42.3097 -85.6356 266° West 440 506 43,000  Level Chicago Center
Fri 10:23:29 PM 42.3006 -85.8033 266° West 444 511 43,000  Level Chicago Center
Fri 10:24:30 PM 42.2908 -86.0033 266° West 443 510 43,000  Level Chicago Center
Fri 10:25:32 PM 42.2825 -86.1500 266° West 447 514 43,000  Level Chicago Center
Fri 10:26:33 PM 42.2739 -86.3164 266° West 448 516 43,000  Level Chicago Center
Fri 10:27:35 PM 42.2625 -86.5131 266° West 443 510 43,000  Level Chicago Center
Fri 10:28:36 PM 42.2533 -86.6844 266° West 444 511 43,000  Level Chicago Center
Fri 10:29:38 PM 42.2444 -86.8478 266° West 443 510 43,000  Level Chicago Center
Fri 10:30:39 PM 42.2350 -87.0119 266° West 443 510 43,000  Level Chicago Center
Fri 10:31:41 PM 42.2222 -87.1697 264° West 431 496 43,000  Level Chicago Center
Fri 10:32:42 PM 42.2125 -87.3333 265° West 441 507 43,000  Level Chicago Center
Fri 10:33:44 PM 42.2017 -87.4939 265° West 438 504 43,000  Level Chicago Center
Fri 10:34:45 PM 42.1892 -87.6864 265° West 437 503 43,000  Level Chicago Center
Fri 10:35:47 PM 42.1783 -87.8450 265° West 433 498 43,000  Level Chicago Center
Fri 10:36:48 PM 42.1675 -88.0042 265° West 431 496 43,000  Level Chicago Center
Fri 10:37:50 PM 42.1556 -88.1672 264° West 439 505 43,000  Level Chicago Center
Fri 10:38:51 PM 42.1436 -88.3267 264° West 436 502 43,000  Level Chicago Center
Fri 10:39:52 PM 42.1322 -88.4850 265° West 433 498 43,000  Level Chicago Center
Fri 10:40:54 PM 42.1172 -88.6781 264° West 436 502 43,000  Level Chicago Center
Fri 10:41:55 PM 42.1053 -88.8375 264° West 436 502 43,000  Level Chicago Center
Fri 10:42:56 PM 42.0917 -89.0114 264° West 435 501 43,000  Level Chicago Center
Fri 10:43:58 PM 42.0783 -89.1747 264° West 438 504 43,000  Level Chicago Center
Fri 10:44:59 PM 42.0664 -89.3181 264° West 435 501 43,000  Level Chicago Center
Fri 10:46:00 PM 42.0533 -89.4781 264° West 435 501 43,000  Level Chicago Center
Fri 10:47:02 PM 42.0369 -89.6697 263° West 433 498 43,000  Level Chicago Center
Fri 10:48:03 PM 42.0236 -89.8281 264° West 432 497 43,000  Level Chicago Center
Fri 10:49:04 PM 42.0100 -89.9944 264° West 427 491 43,000  Level Chicago Center
Fri 10:50:06 PM 41.9961 -90.1472 263° West 418 481 43,000  Level Chicago Center
Fri 10:51:07 PM 41.9833 -90.3008 264° West 418 481 43,000  Level Chicago Center
Fri 10:52:08 PM 41.9689 -90.4531 263° West 415 478 43,000  Level Chicago Center
Fri 10:53:09 PM 41.9544 -90.6053 263° West 414 476 43,000  Level Chicago Center
Fri 10:54:11 PM 41.9386 -90.7628 262° West 424 488 43,000  Level Chicago Center
Fri 10:55:12 PM 41.9242 -90.9178 263° West 421 484 43,000  Level Chicago Center
Fri 10:56:13 PM 41.9094 -91.0700 263° West 416 479 43,000  Level Chicago Center
Fri 10:57:14 PM 41.8942 -91.2239 262° West 417 480 43,000  Level Chicago Center
Fri 10:58:15 PM 41.8750 -91.4078 262° West 417 480 43,000  Level Chicago Center
Fri 10:59:17 PM 41.8603 -91.5622 263° West 419 482 43,000  Level Chicago Center
Fri 11:00:18 PM 41.8442 -91.7167 262° West 419 482 43,000  Level Chicago Center
Fri 11:01:19 PM 41.8281 -91.8714 262° West 421 484 43,000  Level Chicago Center
Fri 11:02:20 PM 41.8111 -92.0289 262° West 428 493 43,000  Level Chicago Center
Fri 11:03:22 PM 41.7950 -92.1867 262° West 430 495 43,000  Level Chicago Center
Fri 11:05:24 PM 41.7594 -92.5064 262° West 439 505 43,000  Level Chicago Center
Fri 11:06:26 PM 41.7381 -92.6983 262° West 439 505 43,000  Level Chicago Center
Fri 11:06:59 PM 41.7311 -92.7647 262° West 440 506 43,000  Level Minneapolis Center
Fri 11:08:00 PM 41.7081 -92.9592 261° West 442 509 43,000  Level Minneapolis Center
Fri 11:09:01 PM 41.6892 -93.1192 261° West 442 509 43,000  Level Minneapolis Center
Fri 11:10:02 PM 41.6708 -93.2783 261° West 441 507 43,000  Level Minneapolis Center
Fri 11:11:04 PM 41.6519 -93.4339 261° West 437 503 43,000  Level Minneapolis Center
Fri 11:12:05 PM 41.6339 -93.5858 261° West 428 493 43,000  Level Minneapolis Center
Fri 11:13:06 PM 41.6161 -93.7375 261° West 423 487 43,000  Level Minneapolis Center
Fri 11:14:07 PM 41.5972 -93.8900 261° West 420 483 43,000  Level Minneapolis Center
Fri 11:15:08 PM 41.5736 -94.0708 260° West 418 481 43,000  Level Minneapolis Center
Fri 11:16:09 PM 41.5556 -94.2211 261° West 416 479 43,000  Level Minneapolis Center
Fri 11:17:10 PM 41.5372 -94.3700 261° West 413 475 43,000  Level Minneapolis Center
Fri 11:18:11 PM 41.5178 -94.5206 260° West 414 476 43,000  Level Minneapolis Center
Fri 11:19:14 PM 41.4978 -94.6747 260° West 422 486 43,000  Level Minneapolis Center
Fri 11:20:15 PM 41.4772 -94.8331 260° West 432 497 43,000  Level Minneapolis Center
Fri 11:21:16 PM 41.4553 -94.9986 260° West 441 507 43,000  Level Minneapolis Center
Fri 11:22:17 PM 41.4303 -95.1892 260° West 449 517 43,000  Level Minneapolis Center
Fri 11:23:18 PM 41.4078 -95.3517 260° West 451 519 43,000  Level Minneapolis Center
Fri 11:24:19 PM 41.3853 -95.5139 260° West 451 519 43,000  Level Minneapolis Center
Fri 11:25:20 PM 41.3631 -95.6722 259° West 448 516 43,000  Level Minneapolis Center
Fri 11:26:21 PM 41.3406 -95.8336 260° West 444 511 43,000  Level Minneapolis Center
Fri 11:27:22 PM 41.3161 -95.9936 259° West 441 507 43,000  Level Minneapolis Center
Fri 11:28:23 PM 41.2947 -96.1533 260° West 440 506 43,000  Level Minneapolis Center
Fri 11:29:24 PM 41.2703 -96.3117 258° West 439 505 43,000  Level Minneapolis Center
Fri 11:30:25 PM 41.2442 -96.5019 260° West 438 504 43,000  Level Minneapolis Center
Fri 11:31:26 PM 41.2200 -96.6600 259° West 436 502 43,000  Level Minneapolis Center
Fri 11:32:27 PM 41.1969 -96.8164 259° West 433 498 43,000  Level Minneapolis Center
Fri 11:33:28 PM 41.1733 -96.9728 259° West 432 497 43,000  Level Minneapolis Center
Fri 11:34:29 PM 41.1478 -97.1303 258° West 435 501 43,000  Level Minneapolis Center
Fri 11:35:30 PM 41.1239 -97.2867 259° West 435 501 43,000  Level Minneapolis Center
Fri 11:36:31 PM 41.1000 -97.4442 259° West 435 501 43,000  Level Minneapolis Center
Fri 11:37:32 PM 41.0742 -97.6006 258° West 435 501 43,000  Level Minneapolis Center
Fri 11:38:33 PM 41.0497 -97.7597 259° West 438 504 43,000  Level Minneapolis Center
Fri 11:39:34 PM 41.0242 -97.9189 258° West 439 505 43,000  Level Minneapolis Center
Fri 11:40:35 PM 40.9983 -98.0786 258° West 441 507 43,000  Level Minneapolis Center
Fri 11:41:36 PM 40.9714 -98.2389 257° West 443 510 43,000  Level Minneapolis Center
Fri 11:42:37 PM 40.9158 -98.3906 244° Southwest 450 518 43,000  Level Minneapolis Center
Fri 11:43:38 PM 40.8569 -98.5422 243° Southwest 455 524 43,000  Level Minneapolis Center
Fri 11:44:39 PM 40.7989 -98.6978 244° Southwest 461 531 43,000  Level Minneapolis Center
Fri 11:45:40 PM 40.7411 -98.8558 244° Southwest 467 537 43,000  Level Minneapolis Center
Fri 11:46:41 PM 40.6800 -99.0239 244° Southwest 471 542 43,000  Level Minneapolis Center
Fri 11:47:42 PM 40.6275 -99.1756 246° West 476 548 43,000  Level Minneapolis Center
Fri 11:48:43 PM 40.5711 -99.3383 246° West 481 554 43,000  Level Minneapolis Center
Fri 11:49:44 PM 40.5158 -99.5017 246° West 485 558 43,000  Level Minneapolis Center
Fri 11:50:45 PM 40.4597 -99.7042 250° West 488 562 43,000  Level Minneapolis Center
Fri 11:51:46 PM 40.4367 -99.8817 260° West 491 565 43,000  Level Minneapolis Center
Fri 11:52:48 PM 40.4086 -100.0403 257° West 488 562 43,000  Level Denver Center
Fri 11:53:49 PM 40.3764 -100.2350 258° West 487 560 43,000  Level Denver Center
Fri 11:54:50 PM 40.3492 -100.4014 258° West 487 560 43,000  Level Denver Center
Fri 11:55:52 PM 40.3219 -100.5656 258° West 482 555 43,000  Level Denver Center
Fri 11:56:53 PM 40.2900 -100.7503 257° West 467 537 43,000  Level Denver Center
Fri 11:57:54 PM 40.2647 -100.9069 258° West 460 529 43,000  Level Denver Center
Fri 11:59:20 PM 40.2250 -101.1389 257° West 453 521 43,000  Level Denver Center
Sat 12:00:21 AM 40.1992 -101.2931 258° West 452 520 43,000  Level Denver Center
Sat 12:01:22 AM 40.1678 -101.4686 257° West 443 510 43,000  Level Denver Center
Sat 12:02:24 AM 40.1414 -101.6197 257° West 444 511 43,000  Level Denver Center
Sat 12:03:25 AM 40.1142 -101.7697 257° West 444 511 43,000  Level Denver Center
Sat 12:04:26 AM 40.0833 -101.9425 257° West 440 506 43,000  Level Denver Center
Sat 12:05:27 AM 40.0556 -102.0925 256° West 442 509 43,000  Level Denver Center
Sat 12:06:28 AM 40.0242 -102.2694 257° West 448 516 43,000  Level Denver Center
Sat 12:07:30 AM 39.9956 -102.4250 257° West 459 528 43,000  Level Denver Center
Sat 12:08:31 AM 39.9675 -102.5800 257° West 461 531 43,000  Level Denver Center
Sat 12:09:32 AM 39.9350 -102.7508 256° West 463 533 43,000  Level Denver Center
Sat 12:10:33 AM 39.9036 -102.9139 256° West 465 535 43,000  Level Denver Center
Sat 12:11:34 AM 39.8725 -103.0792 256° West 469 540 43,000  Level Denver Center
Sat 12:12:35 AM 39.8406 -103.2447 256° West 472 543 43,000  Level Denver Center
Sat 12:13:36 AM 39.8100 -103.4092 256° West 471 542 43,000  Level Denver Center
Sat 12:14:37 AM 39.7783 -103.5722 256° West 468 539 43,000  Level Denver Center
Sat 12:15:38 AM 39.7392 -103.7689 256° West 471 542 43,000  Level Denver Center
Sat 12:16:40 AM 39.7078 -103.9319 256° West 466 536 43,000  Level Denver Center
Sat 12:17:41 AM 39.6758 -104.0900 255° West 453 521 43,000  Level Denver Center
Sat 12:18:42 AM 39.6439 -104.2475 255° West 454 522 43,000  Level Denver Center
Sat 12:19:43 AM 39.6119 -104.4050 255° West 452 520 43,000  Level Denver Center
Sat 12:20:44 AM 39.5803 -104.5564 255° West 436 502 43,000  Level Denver Center
Sat 12:21:45 AM 39.5456 -104.7253 255° West 456 525 43,000  Level Denver Center
Sat 12:22:46 AM 39.5103 -104.8892 254° West 446 513 43,000  Level Denver Center
Sat 12:23:47 AM 39.4781 -105.0467 255° West 450 518 43,000  Level Denver Center
Sat 12:24:48 AM 39.4461 -105.2017 255° West 450 518 43,000  Level Denver Center
Sat 12:25:49 AM 39.4117 -105.3586 254° West 451 519 43,000  Level Denver Center
Sat 12:26:50 AM 39.3797 -105.5119 255° West 439 505 43,000  Level Denver Center
Sat 12:27:51 AM 39.3461 -105.6653 254° West 441 507 43,000  Level Denver Center
Sat 12:28:52 AM 39.3142 -105.8175 255° West 441 507 43,000  Level Denver Center
Sat 12:29:53 AM 39.2797 -105.9697 254° West 441 507 43,000  Level Denver Center
Sat 12:30:54 AM 39.2469 -106.1231 255° West 443 510 43,000  Level Denver Center
Sat 12:31:55 AM 39.2117 -106.2808 254° West 438 504 43,000  Level Denver Center
Sat 12:32:56 AM 39.1750 -106.4483 254° West 437 503 43,000  Level Denver Center
Sat 12:33:57 AM 39.1425 -106.5897 254° West 432 497 43,000  Level Denver Center
Sat 12:34:58 AM 39.1111 -106.7328 254° West 433 498 43,000  Level Denver Center
Sat 12:35:58 AM 39.0722 -106.8989 253° West 434 499 43,000 50 Level Denver Center
Sat 12:36:59 AM 39.0400 -107.0403 254° West 431 496 43,100  Climbing Denver Center
Sat 12:38:00 AM 39.0069 -107.1828 253° West 432 497 43,000 -49 Descending Denver Center
Sat 12:39:01 AM 38.9681 -107.3492 253° West 433 498 43,000  Level Denver Center
Sat 12:40:02 AM 38.9339 -107.4928 253° West 438 504 43,000  Level Denver Center
Sat 12:41:03 AM 38.9017 -107.6344 254° West 432 497 43,000  Level Denver Center
Sat 12:42:16 AM 38.8567 -107.8231 253° West 434 499 43,000  Level Denver Center
Sat 12:43:17 AM 38.8219 -107.9669 253° West 438 504 43,000  Level Denver Center
Sat 12:44:17 AM 38.7811 -108.1350 253° West 439 505 43,000  Level Denver Center
Sat 12:45:18 AM 38.7467 -108.2789 253° West 440 506 43,000  Level Denver Center
Sat 12:46:19 AM 38.7119 -108.4242 253° West 443 510 43,000  Level Denver Center
Sat 12:47:20 AM 38.6717 -108.5906 253° West 439 505 43,000  Level Denver Center
Sat 12:48:21 AM 38.6369 -108.7331 253° West 437 503 43,000  Level Denver Center
Sat 12:49:22 AM 38.6025 -108.8728 253° West 431 496 43,000  Level Denver Center
Sat 12:50:22 AM 38.5617 -109.0367 252° West 430 495 43,000  Level Denver Center
Sat 12:51:23 AM 38.5261 -109.1778 252° West 433 498 43,000  Level Denver Center
Sat 12:52:24 AM 38.4917 -109.3150 252° West 425 489 43,000  Level Denver Center
Sat 12:53:25 AM 38.4567 -109.4536 252° West 426 490 43,000  Level Denver Center
Sat 12:54:25 AM 38.4156 -109.6119 252° West 422 486 43,000  Level Denver Center
Sat 12:55:26 AM 38.3808 -109.7481 252° West 420 483 43,000  Level Denver Center
Sat 12:56:27 AM 38.3458 -109.8847 252° West 422 486 43,000  Level Denver Center
Sat 12:57:27 AM 38.3044 -110.0397 251° West 415 478 43,000  Level Denver Center
Sat 12:58:28 AM 38.2706 -110.1761 252° West 421 484 43,000  Level Denver Center
Sat 12:59:30 AM 38.2342 -110.3108 251° West 421 484 43,000  Level Denver Center
Sat 01:00:31 AM 38.1911 -110.4689 251° West 424 488 43,000  Level Denver Center
Sat 01:01:31 AM 38.1556 -110.6067 252° West 428 493 43,000  Level Denver Center
Sat 01:02:32 AM 38.1194 -110.7442 252° West 429 494 43,000  Level Denver Center
Sat 01:03:32 AM 38.0758 -110.9053 251° West 431 496 43,000  Level Denver Center
Sat 01:04:33 AM 38.0419 -111.0331 251° West 431 496 43,000  Level Denver Center
Sat 01:05:34 AM 38.0039 -111.1764 251° West 431 496 43,000  Level Denver Center
Sat 01:06:34 AM 37.9628 -111.3197 250° West 432 497 43,000  Level Denver Center
Sat 01:07:35 AM 37.9247 -111.4639 252° West 433 498 43,000  Level Denver Center
Sat 01:08:35 AM 37.8836 -111.6078 250° West 435 501 43,000  Level Denver Center
Sat 01:09:36 AM 37.8356 -111.7825 251° West 438 504 43,000  Level Denver Center
Sat 01:10:36 AM 37.7956 -111.9275 251° West 437 503 43,000  Level Denver Center
Sat 01:11:37 AM 37.7542 -112.0731 250° West 441 507 43,000  Level Denver Center
Sat 01:12:38 AM 37.7142 -112.2186 251° West 439 505 43,000  Level Denver Center
Sat 01:13:17 AM 37.6864 -112.3039 248° West 440 506 43,000  Level Los Angeles Center
Sat 01:14:00 AM 37.6531 -112.3853 243° Southwest 437 503 43,000  Level Salt Lake Center
Sat 01:15:01 AM 37.5783 -112.5458 240° Southwest 440 506 43,000  Level Salt Lake Center
Sat 01:16:02 AM 37.5153 -112.6797 239° Southwest 439 505 43,000  Level Salt Lake Center
Sat 01:17:03 AM 37.4628 -112.7886 239° Southwest 442 509 43,000  Level Salt Lake Center
Sat 01:18:04 AM 37.3997 -112.9267 240° Southwest 446 513 43,000  Level Salt Lake Center
Sat 01:18:35 AM 37.3544 -113.0008 232° Southwest 447 514 43,000  Level Los Angeles Center
Sat 01:19:36 AM 37.2722 -113.1175 228° Southwest 445 512 43,000  Level Los Angeles Center
Sat 01:20:06 AM 37.2244 -113.1869 229° Southwest 444 511 43,000  Level Salt Lake Center
Sat 01:20:37 AM 37.1911 -113.2328 228° Southwest 443 510 43,000  Level Los Angeles Center
Sat 01:21:38 AM 37.1094 -113.3472 228° Southwest 442 509 43,000  Level Los Angeles Center
Sat 01:22:39 AM 37.0278 -113.4622 228° Southwest 442 509 43,000  Level Los Angeles Center
Sat 01:23:40 AM 36.9469 -113.5767 229° Southwest 440 506 43,000  Level Los Angeles Center
Sat 01:24:41 AM 36.8492 -113.7122 228° Southwest 438 504 43,000  Level Los Angeles Center
Sat 01:25:42 AM 36.7683 -113.8256 228° Southwest 437 503 43,000  Level Los Angeles Center
Sat 01:26:43 AM 36.6867 -113.9392 228° Southwest 438 504 43,000  Level Los Angeles Center
Sat 01:27:44 AM 36.6053 -114.0519 228° Southwest 440 506 43,000  Level Los Angeles Center
Sat 01:28:45 AM 36.5228 -114.1656 228° Southwest 442 509 43,000  Level Los Angeles Center
Sat 01:29:46 AM 36.4350 -114.2869 228° Southwest 440 506 43,000  Level Los Angeles Center
Sat 01:30:47 AM 36.3522 -114.3997 228° Southwest 441 507 43,000  Level Los Angeles Center
Sat 01:31:48 AM 36.2692 -114.5122 228° Southwest 441 507 43,000  Level Los Angeles Center
Sat 01:32:49 AM 36.1861 -114.6250 228° Southwest 442 509 43,000  Level Los Angeles Center
Sat 01:33:50 AM 36.1047 -114.7378 228° Southwest 439 505 43,000  Level Los Angeles Center
Sat 01:34:51 AM 36.0225 -114.8481 227° Southwest 435 501 43,000  Level Los Angeles Center
Sat 01:35:52 AM 35.9394 -114.9575 227° Southwest 434 499 43,000  Level Los Angeles Center
Sat 01:36:53 AM 35.8578 -115.0686 228° Southwest 434 499 43,000  Level Los Angeles Center
Sat 01:37:54 AM 35.7744 -115.1789 227° Southwest 436 502 43,000  Level Los Angeles Center
Sat 01:38:55 AM 35.6928 -115.2900 228° Southwest 436 502 43,000  Level Los Angeles Center
Sat 01:39:56 AM 35.6103 -115.4006 227° Southwest 436 502 43,000 -344 Level Los Angeles Center
Sat 01:40:57 AM 35.5269 -115.5103 227° Southwest 437 503 42,300 -885 Descending Los Angeles Center
Sat 01:41:58 AM 35.4439 -115.6222 228° Southwest 445 512 41,200 -1,082 Descending Los Angeles Center
Sat 01:42:59 AM 35.3606 -115.7325 227° Southwest 444 511 40,100 -590 Descending Los Angeles Center
Sat 01:44:00 AM 35.2753 -115.8428 227° Southwest 445 512 40,000 -49 Descending Los Angeles Center
Sat 01:45:01 AM 35.1914 -115.9531 227° Southwest 442 509 40,000  Level Los Angeles Center
Sat 01:46:02 AM 35.1067 -116.0631 227° Southwest 444 511 40,000 -738 Level Los Angeles Center
Sat 01:47:03 AM 35.0053 -116.1942 227° Southwest 442 509 38,500 -2,016 Descending Los Angeles Center
Sat 01:48:04 AM 34.9194 -116.3050 227° Southwest 446 513 35,900 -2,902 Descending Los Angeles Center
Sat 01:49:05 AM 34.8342 -116.4186 228° Southwest 451 519 32,600 -3,393 Descending Los Angeles Center
Sat 01:50:06 AM 34.7500 -116.5411 230° Southwest 470 541 29,000 -3,246 Descending Los Angeles Center
Sat 01:51:07 AM 34.6994 -116.6875 247° West 468 539 26,000 -2,459 Descending Los Angeles Center
Sat 01:52:08 AM 34.6903 -116.8378 266° West 447 514 24,000 -1,623 Descending Los Angeles Center
Sat 01:53:09 AM 34.6839 -116.9906 267° West 452 520 22,700 -1,279 Descending Los Angeles Center
Sat 01:54:10 AM 34.6711 -117.1431 264° West 452 520 21,400 -1,426 Descending Los Angeles Center
Sat 01:55:11 AM 34.6594 -117.2919 265° West 443 510 19,800 -1,328 Descending Los Angeles Center
Sat 01:56:12 AM 34.6464 -117.4383 264° West 437 503 18,700 -984 Descending Los Angeles Center
Sat 01:57:13 AM 34.6336 -117.5844 264° West 434 499 17,800 -984 Descending Los Angeles Center
Sat 01:58:14 AM 34.6217 -117.7264 264° West 422 486 16,700 -1,082 Descending Los Angeles Center
Sat 01:59:15 AM 34.6100 -117.8675 264° West 420 483 15,600 -1,636 Descending Los Angeles Center
Sat 02:00:15 AM 34.5983 -118.0039 264° West 408 470 13,400 -2,033 Descending Los Angeles Center
Sat 02:01:16 AM 34.5872 -118.1261 264° West 366 421 11,500 -1,770 Descending Los Angeles Center
Sat 02:02:17 AM 34.5778 -118.2375 264° West 306 352 9,800 -1,525 Descending Los Angeles Center
Sat 02:03:18 AM 34.5692 -118.3286 263° West 277 319 8,400 -836 Descending Los Angeles Center
Sat 02:04:19 AM 34.5525 -118.4147 257° West 267 307 8,100 -443 Descending Los Angeles Center
Sat 02:05:20 AM 34.4972 -118.4789 224° Southwest 279 321 7,500 -541 Descending Los Angeles Center
Sat 02:06:21 AM 34.4372 -118.5381 219° Southwest 279 321 7,000 -934 Descending Los Angeles Center
Sat 02:07:22 AM 34.3611 -118.5547 190° South 278 320 5,600 -984 Descending Los Angeles Center
Sat 02:08:23 AM 34.2714 -118.5781 192° South 276 318 5,000 -541 Descending Los Angeles Center
Sat 02:09:24 AM 34.2061 -118.5658 171° South 260 299 4,500 -1,033 Descending Los Angeles Center
Sat 02:10:25 AM 34.2000 -118.4967 96° East 220 253 2,900 -1,328 Descending Los Angeles Center
Sat 02:11:26 AM 34.1997 -118.4328 90° East 203 234 1,800 -885 Descending Los Angeles Center
Sat 02:12:27 AM 34.1981 -118.3925 93° East 153 176 1,100 -446 Descending Los Angeles Center
Sat 02:13:27 AM 34.1975 -118.3556 91° East 141 162 900 -200 Descending Los Angeles Center
Sat 02:15:00 AM 34.2000 -118.3500 90° East  Level FlightAware Approximate
Sat 02:22:00 AM 34.2007 -118.3587 90° East  Level Estimated

Login

Don't have an account? Register now (free) for customized features, flight alerts, and more!